Time;durP1;ratioP1;P1;durP2;ratioP2;P2;SDS_P1;SDS_P2;PMS_P1;PMS_P2;Temp;Humidity;BMP_temperature;BMP_pressure;BME280_temperature;BME280_humidity;BME280_pressure;Samples;Min_cycle;Max_cycle;Signal;HPM_P1;HPM_P2
2021/01/15 00:01:35;;;;;;;;;;;;;;;18.83;54.27;100375.38;5097199;28;1905;-57
2021/01/15 00:04:00;;;;;;;;;;;;;;;18.87;54.36;100376.78;5097247;28;1460;-64
2021/01/15 00:06:26;;;;;;;;;;;;;;;18.83;54.30;100383.41;5096515;28;1448;-58
2021/01/15 00:08:52;;;;;;;;;;;;;;;18.71;54.35;100389.91;5076194;28;1533;-58
2021/01/15 00:11:57;;;;;;;;;;;;;;;18.66;54.29;100398.34;5090882;28;1572;-58
2021/01/15 00:14:22;;;;;;;;;;;;;;;18.59;54.84;100403.44;5093936;28;1442;-58
2021/01/15 00:16:50;;;;;;;;;;;;;;;18.56;54.90;100410.88;5097195;28;1680;-64
2021/01/15 00:19:16;;;;;;;;;;;;;;;18.55;54.75;100409.22;5096832;28;1571;-58
2021/01/15 00:21:50;;;;;;;;;;;;;;;18.62;54.34;100415.69;5096900;28;1996;-58
2021/01/15 00:24:17;;;;;;;;;;;;;;;18.57;54.27;100413.44;5096751;28;1705;-64
2021/01/15 00:26:45;;;;;;;;;;;;;;;18.59;54.08;100432.88;5096714;28;1618;-58
2021/01/15 00:29:12;;;;;;;;;;;;;;;18.51;54.66;100424.72;5076967;28;1496;-64
2021/01/15 00:31:39;;;;;;;;;;;;;;;18.49;54.60;100432.88;5097075;28;1631;-57
2021/01/15 00:34:05;;;;;;;;;;;;;;;18.50;54.68;100433.72;5096623;28;1412;-64
2021/01/15 00:36:32;;;;;;;;;;;;;;;18.51;54.45;100434.59;5096647;28;1476;-58
2021/01/15 00:38:57;;;;;;;;;;;;;;;18.49;54.09;100443.59;5096726;28;1468;-64
2021/01/15 00:41:23;;;;;;;;;;;;;;;18.47;54.45;100448.25;5096339;28;1956;-58
2021/01/15 00:43:48;;;;;;;;;;;;;;;18.46;54.62;100451.06;5096880;28;1507;-58
2021/01/15 00:46:14;;;;;;;;;;;;;;;18.38;54.64;100440.19;5096367;28;1523;-64
2021/01/15 00:48:40;;;;;;;;;;;;;;;18.38;53.99;100445.56;5077321;28;1481;-64
2021/01/15 00:51:09;;;;;;;;;;;;;;;18.35;54.84;100445.84;5096306;28;1493;-65
2021/01/15 00:53:34;;;;;;;;;;;;;;;18.34;54.61;100458.38;5078883;28;1466;-58
2021/01/15 00:55:59;;;;;;;;;;;;;;;18.35;54.71;100469.94;5075275;28;1622;-64
2021/01/15 00:58:25;;;;;;;;;;;;;;;18.32;54.53;100467.53;5077621;28;1704;-58
2021/01/15 01:00:51;;;;;;;;;;;;;;;18.32;54.50;100467.53;5092859;28;1562;-58
2021/01/15 01:03:16;;;;;;;;;;;;;;;18.29;55.04;100452.59;5075218;28;1965;-58
2021/01/15 01:05:42;;;;;;;;;;;;;;;18.29;54.76;100461.47;5094452;28;1721;-61
2021/01/15 01:08:07;;;;;;;;;;;;;;;18.29;55.10;100464.13;5093751;28;1844;-58
2021/01/15 01:10:32;;;;;;;;;;;;;;;18.31;55.27;100453.31;5095172;28;1429;-63
2021/01/15 01:12:58;;;;;;;;;;;;;;;18.31;55.08;100449.78;5077102;28;1481;-64
2021/01/15 01:15:23;;;;;;;;;;;;;;;18.32;54.88;100451.47;5076731;28;1637;-64
2021/01/15 01:17:48;;;;;;;;;;;;;;;18.31;54.17;100455.97;5095787;28;1299;-64
2021/01/15 01:20:14;;;;;;;;;;;;;;;18.29;54.68;100458.78;5076599;28;1500;-58
2021/01/15 01:22:39;;;;;;;;;;;;;;;18.27;54.51;100449.22;5095500;28;1989;-64
2021/01/15 01:25:05;;;;;;;;;;;;;;;18.24;54.74;100461.06;5095777;28;1655;-65
2021/01/15 01:27:31;;;;;;;;;;;;;;;18.24;55.12;100460.19;5095164;28;1428;-58
2021/01/15 01:29:57;;;;;;;;;;;;;;;18.20;54.42;100470.31;5095554;28;1519;-58
2021/01/15 01:32:22;;;;;;;;;;;;;;;18.20;53.95;100489.03;5095155;28;1584;-58
2021/01/15 01:34:48;;;;;;;;;;;;;;;18.21;54.24;100488.06;5095141;28;1445;-65
2021/01/15 01:37:13;;;;;;;;;;;;;;;18.19;54.45;100494.56;5095171;28;1564;-64
2021/01/15 01:39:38;;;;;;;;;;;;;;;18.17;54.13;100496.53;5089268;28;1437;-64
2021/01/15 01:42:04;;;;;;;;;;;;;;;18.17;53.77;100491.16;5095538;28;1885;-58
2021/01/15 01:44:29;;;;;;;;;;;;;;;18.18;53.82;100495.53;5075248;28;1571;-58
2021/01/15 01:46:55;;;;;;;;;;;;;;;18.17;54.71;100497.38;5094891;28;1497;-58
2021/01/15 01:49:21;;;;;;;;;;;;;;;18.15;54.22;100491.31;5095054;28;1503;-65
2021/01/15 01:51:48;;;;;;;;;;;;;;;18.13;53.67;100481.72;5095383;28;1575;-58
2021/01/15 01:54:13;;;;;;;;;;;;;;;18.08;54.42;100476.75;5095047;28;1575;-58
2021/01/15 01:56:39;;;;;;;;;;;;;;;18.08;53.85;100491.00;5094335;28;1639;-64
2021/01/15 01:59:05;;;;;;;;;;;;;;;18.13;54.32;100500.47;5073997;28;1536;-58
2021/01/15 02:01:31;;;;;;;;;;;;;;;18.04;53.96;100510.97;5094455;28;1902;-64
2021/01/15 02:04:03;;;;;;;;;;;;;;;18.04;54.53;100510.13;5094981;28;1539;-66
2021/01/15 02:06:28;;;;;;;;;;;;;;;18.05;53.65;100520.69;5094908;28;1511;-58
2021/01/15 02:08:54;;;;;;;;;;;;;;;18.01;54.61;100513.09;5094828;28;1524;-64
2021/01/15 02:11:20;;;;;;;;;;;;;;;18.00;53.76;100524.75;5094813;28;1560;-64
2021/01/15 02:13:54;;;;;;;;;;;;;;;18.01;54.37;100524.63;5094815;28;1547;-58
2021/01/15 02:16:22;;;;;;;;;;;;;;;17.97;54.30;100527.72;5094473;28;1572;-58
2021/01/15 02:18:48;;;;;;;;;;;;;;;17.97;53.65;100533.06;5090769;28;1560;-58
2021/01/15 02:21:13;;;;;;;;;;;;;;;17.98;54.10;100537.44;5094628;28;1564;-58
2021/01/15 02:23:40;;;;;;;;;;;;;;;17.96;54.06;100536.72;5094677;28;1975;-58
2021/01/15 02:26:06;;;;;;;;;;;;;;;17.97;53.21;100533.06;5094514;28;1564;-58
2021/01/15 02:28:50;;;;;;;;;;;;;;;17.98;53.96;100540.94;5094687;28;1591;-58
2021/01/15 02:31:28;;;;;;;;;;;;;;;17.98;54.44;100538.25;5094357;28;1610;-64
2021/01/15 02:34:00;;;;;;;;;;;;;;;17.98;54.13;100545.44;5083509;28;1472;-58
2021/01/15 02:36:37;;;;;;;;;;;;;;;17.98;53.62;100550.81;5084808;28;1636;-64
2021/01/15 02:39:14;;;;;;;;;;;;;;;17.97;52.77;100549.13;5107550;28;1734;-64
2021/01/15 02:41:40;;;;;;;;;;;;;;;17.96;53.95;100561.63;5097717;28;1955;-64
2021/01/15 02:44:06;;;;;;;;;;;;;;;17.95;53.87;100562.63;5103781;28;1824;-65
2021/01/15 02:46:52;;;;;;;;;;;;;;;17.96;53.98;100572.34;5102860;28;1798;-64
2021/01/15 02:49:17;;;;;;;;;;;;;;;17.94;53.38;100568.09;5107792;28;1758;-59
2021/01/15 02:51:43;;;;;;;;;;;;;;;17.93;53.23;100559.25;5102600;28;1747;-59
2021/01/15 02:54:09;;;;;;;;;;;;;;;17.96;52.75;100564.31;5106217;28;1809;-58
2021/01/15 02:56:37;;;;;;;;;;;;;;;17.95;53.71;100561.78;5103799;28;1794;-64
2021/01/15 02:59:03;;;;;;;;;;;;;;;17.94;53.11;100573.44;5090260;28;1774;-58
2021/01/15 03:11:59;;;;;;;;;;;;;;;17.83;52.74;100556.50;5076994;23;3587;-59
2021/01/15 03:14:27;;;;;;;;;;;;;;;17.79;53.24;100541.69;5051425;28;1586;-59
2021/01/15 03:16:54;;;;;;;;;;;;;;;17.80;53.23;100543.34;5073176;28;1740;-66
2021/01/15 03:19:20;;;;;;;;;;;;;;;17.79;54.13;100551.53;5066046;28;1752;-59
2021/01/15 03:21:50;;;;;;;;;;;;;;;17.79;53.12;100552.38;5072149;28;1991;-64
2021/01/15 03:24:16;;;;;;;;;;;;;;;17.83;53.24;100552.97;5061993;28;1743;-59
2021/01/15 03:26:41;;;;;;;;;;;;;;;17.80;52.80;100570.09;5060000;28;1909;-58
2021/01/15 03:29:07;;;;;;;;;;;;;;;17.80;52.89;100569.25;5065478;28;1830;-59
2021/01/15 03:31:32;;;;;;;;;;;;;;;17.77;53.28;100559.69;5050014;28;1684;-59
2021/01/15 03:33:57;;;;;;;;;;;;;;;17.77;53.83;100572.22;5052487;28;1689;-65
2021/01/15 03:36:22;;;;;;;;;;;;;;;17.79;52.77;100579.13;5070962;28;1675;-58
2021/01/15 03:38:48;;;;;;;;;;;;;;;17.77;52.91;100580.25;5068280;28;1645;-59
2021/01/15 03:41:13;;;;;;;;;;;;;;;17.79;53.69;100578.28;5074344;28;1740;-59
2021/01/15 03:43:39;;;;;;;;;;;;;;;17.81;53.54;100603.06;5067137;28;1882;-64
2021/01/15 03:46:04;;;;;;;;;;;;;;;17.77;53.98;100597.13;5070688;28;1770;-66
2021/01/15 03:48:29;;;;;;;;;;;;;;;17.79;53.72;100603.19;5066983;28;1755;-64
2021/01/15 03:50:55;;;;;;;;;;;;;;;17.78;53.39;100606.00;5073107;28;1751;-65
2021/01/15 03:53:20;;;;;;;;;;;;;;;17.78;52.55;100611.34;5065959;28;1848;-65
2021/01/15 03:55:47;;;;;;;;;;;;;;;17.76;53.72;100611.47;5071730;28;1604;-64
2021/01/15 03:58:12;;;;;;;;;;;;;;;17.76;54.10;100619.50;5070624;28;1747;-59
2021/01/15 04:00:38;;;;;;;;;;;;;;;17.54;54.69;100616.97;5068460;28;1679;-65
2021/01/15 04:03:04;;;;;;;;;;;;;;;17.44;55.02;100623.06;5089215;28;1893;-65
2021/01/15 04:05:30;;;;;;;;;;;;;;;17.35;55.01;100606.94;5083502;28;1612;-61
2021/01/15 04:07:55;;;;;;;;;;;;;;;17.34;55.18;100607.94;5086959;28;1715;-65
2021/01/15 04:10:20;;;;;;;;;;;;;;;17.29;55.34;100619.03;5090194;28;1636;-64
2021/01/15 04:12:46;;;;;;;;;;;;;;;17.26;56.56;100609.41;5083615;28;1455;-59
2021/01/15 04:15:15;;;;;;;;;;;;;;;17.24;56.37;100626.56;5087624;28;1802;-59
2021/01/15 04:17:41;;;;;;;;;;;;;;;17.24;57.96;100627.41;5093962;28;1686;-64
2021/01/15 04:20:07;;;;;;;;;;;;;;;17.22;57.49;100633.88;5093781;28;1679;-65
2021/01/15 04:22:40;;;;;;;;;;;;;;;17.22;58.39;100636.53;5088091;28;1964;-65
2021/01/15 04:25:06;;;;;;;;;;;;;;;17.20;57.42;100641.16;5092223;28;1686;-59
2021/01/15 04:27:31;;;;;;;;;;;;;;;17.21;57.39;100640.16;5085398;28;1612;-65
2021/01/15 04:29:57;;;;;;;;;;;;;;;17.20;58.07;100650.00;5085181;28;1822;-59
2021/01/15 04:32:23;;;;;;;;;;;;;;;17.13;58.34;100637.28;5088054;28;1749;-59
2021/01/15 04:34:49;;;;;;;;;;;;;;;17.13;58.17;100647.97;5070614;28;1676;-60
2021/01/15 04:37:14;;;;;;;;;;;;;;;17.09;58.23;100634.03;5086781;28;1822;-59
2021/01/15 04:39:39;;;;;;;;;;;;;;;17.10;57.94;100663.28;5085544;28;1722;-59
2021/01/15 04:42:05;;;;;;;;;;;;;;;17.13;58.28;100664.00;5084972;28;1948;-59
2021/01/15 04:44:31;;;;;;;;;;;;;;;17.06;58.71;100656.50;5088132;28;1743;-59
2021/01/15 04:46:57;;;;;;;;;;;;;;;17.03;57.64;100662.09;5082412;28;1755;-65
2021/01/15 04:49:24;;;;;;;;;;;;;;;17.07;59.00;100666.22;5086941;28;1806;-59
2021/01/15 04:51:55;;;;;;;;;;;;;;;17.00;58.44;100654.31;5084965;28;1754;-59
2021/01/15 04:54:27;;;;;;;;;;;;;;;17.00;59.04;100667.69;5086899;28;1727;-59
2021/01/15 04:56:55;;;;;;;;;;;;;;;17.01;58.98;100664.06;5083877;28;1679;-59
2021/01/15 04:59:21;;;;;;;;;;;;;;;17.06;57.90;100671.69;5071675;28;1672;-67
2021/01/15 05:01:47;;;;;;;;;;;;;;;17.02;58.91;100667.56;5082873;28;2231;-59
2021/01/15 05:04:14;;;;;;;;;;;;;;;17.04;59.04;100669.13;5072301;28;1672;-64
2021/01/15 05:06:44;;;;;;;;;;;;;;;17.01;59.06;100669.41;5082935;28;1739;-67
2021/01/15 05:09:13;;;;;;;;;;;;;;;17.02;58.23;100665.72;5089708;28;1746;-65
2021/01/15 05:11:39;;;;;;;;;;;;;;;17.03;59.16;100672.78;5076693;28;1683;-59
2021/01/15 05:14:09;;;;;;;;;;;;;;;17.01;59.13;100680.09;5084368;28;1727;-65
2021/01/15 05:16:38;;;;;;;;;;;;;;;17.01;58.95;100680.09;5084441;28;1672;-59
2021/01/15 05:19:05;;;;;;;;;;;;;;;17.02;58.02;100686.25;5086380;28;1660;-59
2021/01/15 05:21:31;;;;;;;;;;;;;;;16.98;57.97;100684.81;5081952;28;1975;-59
2021/01/15 05:23:57;;;;;;;;;;;;;;;16.98;58.84;100696.34;5067930;28;1699;-65
2021/01/15 05:26:23;;;;;;;;;;;;;;;16.97;58.86;100697.34;5068686;28;1664;-64
2021/01/15 05:28:49;;;;;;;;;;;;;;;16.97;59.04;100694.66;5083798;28;1628;-59
2021/01/15 05:31:14;;;;;;;;;;;;;;;16.98;59.33;100695.50;5089343;28;1735;-65
2021/01/15 05:33:40;;;;;;;;;;;;;;;16.95;58.27;100693.94;5078792;28;1624;-65
2021/01/15 05:36:05;;;;;;;;;;;;;;;16.94;59.35;100694.06;5082172;28;1813;-65
2021/01/15 05:38:31;;;;;;;;;;;;;;;16.94;58.22;100700.25;5086991;28;1737;-59
2021/01/15 05:40:56;;;;;;;;;;;;;;;16.93;58.32;100693.22;5082274;28;1814;-59
2021/01/15 05:43:24;;;;;;;;;;;;;;;16.90;59.52;100714.81;5069372;28;1956;-59
2021/01/15 05:46:08;;;;;;;;;;;;;;;16.89;59.61;100707.75;5086536;28;1775;-65
2021/01/15 05:48:34;;;;;;;;;;;;;;;16.88;59.66;100724.78;5080339;28;1790;-59
2021/01/15 05:51:00;;;;;;;;;;;;;;;16.87;59.33;100726.59;5088310;28;1802;-59
2021/01/15 05:53:25;;;;;;;;;;;;;;;16.84;59.44;100715.31;5063188;28;1656;-59
2021/01/15 05:56:00;;;;;;;;;;;;;;;16.85;58.77;100714.31;5086866;28;1675;-64
2021/01/15 05:58:25;;;;;;;;;;;;;;;16.80;58.57;100720.00;5089581;28;1720;-59
2021/01/15 06:00:51;;;;;;;;;;;;;;;16.83;59.94;100724.28;5104552;28;1861;-59
2021/01/15 06:03:17;;;;;;;;;;;;;;;16.85;59.16;100733.88;5062639;28;1970;-59
2021/01/15 06:05:47;;;;;;;;;;;;;;;16.81;58.63;100724.41;5070113;28;1775;-59
2021/01/15 06:08:13;;;;;;;;;;;;;;;16.80;59.83;100721.84;5085337;28;1783;-59
2021/01/15 06:10:43;;;;;;;;;;;;;;;16.79;58.82;100728.13;5082399;28;1814;-59
2021/01/15 06:13:09;;;;;;;;;;;;;;;16.81;59.66;100726.19;5070595;28;1747;-59
2021/01/15 06:15:44;;;;;;;;;;;;;;;16.87;58.51;100737.28;5081387;28;1679;-64
2021/01/15 06:18:15;;;;;;;;;;;;;;;16.85;59.42;100736.56;5082722;28;1746;-66
2021/01/15 06:20:42;;;;;;;;;;;;;;;16.89;58.58;100737.13;5081607;28;1806;-64
2021/01/15 06:23:11;;;;;;;;;;;;;;;16.92;59.32;100747.59;5084217;28;1910;-59
2021/01/15 06:25:54;;;;;;;;;;;;;;;16.92;58.82;100752.94;5069859;28;1782;-59
2021/01/15 06:28:19;;;;;;;;;;;;;;;16.95;58.98;100760.72;5081597;28;1841;-66
2021/01/15 06:30:57;;;;;;;;;;;;;;;16.92;58.79;100752.09;5081794;28;1754;-64
2021/01/15 06:33:23;;;;;;;;;;;;;;;16.93;59.25;100770.69;5087635;28;1727;-59
2021/01/15 06:35:48;;;;;;;;;;;;;;;16.92;59.43;100768.97;5082841;28;1872;-59
2021/01/15 06:38:14;;;;;;;;;;;;;;;16.96;58.58;100781.09;5088869;28;1667;-65
2021/01/15 06:40:41;;;;;;;;;;;;;;;16.96;58.66;100797.13;5084100;28;1659;-59
2021/01/15 06:43:07;;;;;;;;;;;;;;;16.98;58.56;100781.81;5079742;28;1917;-59
2021/01/15 06:45:37;;;;;;;;;;;;;;;16.96;59.25;100775.75;5065609;28;1779;-65
2021/01/15 06:48:07;;;;;;;;;;;;;;;16.99;59.26;100782.66;5081490;28;1850;-65
2021/01/15 06:50:33;;;;;;;;;;;;;;;16.96;58.86;100780.25;5084086;28;1687;-67
2021/01/15 06:53:07;;;;;;;;;;;;;;;16.97;58.88;100782.81;5080599;28;1791;-65
2021/01/15 06:55:37;;;;;;;;;;;;;;;16.98;58.83;100792.50;5073769;28;1612;-65
2021/01/15 06:58:07;;;;;;;;;;;;;;;16.99;59.90;100796.91;5082134;28;1737;-59
2021/01/15 07:00:34;;;;;;;;;;;;;;;17.01;61.43;100802.97;5078182;28;1783;-58
2021/01/15 07:03:08;;;;;;;;;;;;;;;17.03;62.36;100811.72;5079922;28;1965;-65
2021/01/15 07:05:43;;;;;;;;;;;;;;;17.06;62.39;100806.09;5082595;28;1442;-60
2021/01/15 07:08:10;;;;;;;;;;;;;;;17.20;60.90;100807.69;5082224;28;1666;-61
2021/01/15 07:10:36;;;;;;;;;;;;;;;17.24;60.98;100805.63;5071413;28;1318;-61
2021/01/15 07:13:06;;;;;;;;;;;;;;;17.27;62.25;100813.41;5058756;28;1862;-64
2021/01/15 07:15:35;;;;;;;;;;;;;;;17.14;60.33;100818.88;5053788;28;1315;-63
2021/01/15 07:18:07;;;;;;;;;;;;;;;17.04;58.81;100824.09;5050746;28;1703;-62
2021/01/15 07:20:43;;;;;;;;;;;;;;;16.97;61.63;100844.25;5071645;28;1803;-63
2021/01/15 07:23:13;;;;;;;;;;;;;;;17.06;60.90;100856.03;5073042;28;1910;-64
2021/01/15 07:25:41;;;;;;;;;;;;;;;17.02;61.85;100863.44;5073982;28;1833;-60
2021/01/15 07:28:07;;;;;;;;;;;;;;;16.97;60.86;100865.63;5070641;28;1900;-63
2021/01/15 07:30:32;;;;;;;;;;;;;;;17.07;61.13;100863.09;5053611;28;1437;-62
2021/01/15 07:32:58;;;;;;;;;;;;;;;17.17;60.47;100865.84;5052888;28;1525;-61
2021/01/15 07:35:25;;;;;;;;;;;;;;;17.17;60.59;100872.06;5053287;28;1540;-61
2021/01/15 07:38:06;;;;;;;;;;;;;;;17.18;62.06;100875.59;5036367;28;1291;-62
2021/01/15 07:40:35;;;;;;;;;;;;;;;17.33;61.12;100877.06;5053037;28;1410;-61
2021/01/15 07:43:00;;;;;;;;;;;;;;;17.33;60.25;100876.19;5053149;28;1882;-61
2021/01/15 07:45:26;;;;;;;;;;;;;;;17.18;60.11;100884.44;5051250;28;1391;-62
2021/01/15 07:48:11;;;;;;;;;;;;;;;16.98;55.76;100885.16;5036184;28;1556;-61
2021/01/15 07:50:40;;;;;;;;;;;;;;;16.89;58.58;100874.22;5047100;28;1443;-61
2021/01/15 07:53:14;;;;;;;;;;;;;;;17.13;58.09;100873.28;5055814;28;1231;-62
2021/01/15 07:55:42;;;;;;;;;;;;;;;17.46;55.99;100871.56;5052567;28;1446;-60
2021/01/15 07:58:08;;;;;;;;;;;;;;;17.60;56.57;100867.78;5056351;28;1571;-62
2021/01/15 08:00:33;;;;;;;;;;;;;;;17.85;57.12;100875.56;5056917;28;1458;-65
2021/01/15 08:03:01;;;;;;;;;;;;;;;18.27;55.67;100878.34;5055248;28;1910;-58
2021/01/15 08:05:27;;;;;;;;;;;;;;;18.65;57.67;100871.56;5056533;28;1450;-61
2021/01/15 08:08:03;;;;;;;;;;;;;;;19.05;58.00;100864.66;5048519;28;1414;-61
2021/01/15 08:10:28;;;;;;;;;;;;;;;18.98;55.99;100872.38;5058884;28;1295;-61
2021/01/15 08:12:53;;;;;;;;;;;;;;;18.98;57.21;100875.06;5071689;28;1707;-60
2021/01/15 08:15:29;;;;;;;;;;;;;;;19.34;56.17;100870.16;5076388;28;1643;-60
2021/01/15 08:17:54;;;;;;;;;;;;;;;19.39;56.08;100885.81;5071413;28;1525;-60
2021/01/15 08:20:20;;;;;;;;;;;;;;;19.37;55.95;100882.44;5076204;28;1561;-60
2021/01/15 08:22:47;;;;;;;;;;;;;;;19.22;55.52;100879.28;5076349;28;1930;-59
2021/01/15 08:25:22;;;;;;;;;;;;;;;19.15;53.98;100888.81;5075914;28;1647;-61
2021/01/15 08:27:47;;;;;;;;;;;;;;;19.03;50.36;100907.66;5076690;28;1572;-60
2021/01/15 08:30:13;;;;;;;;;;;;;;;18.96;50.99;100901.16;5076425;28;1461;-61
2021/01/15 08:32:41;;;;;;;;;;;;;;;19.02;51.03;100900.63;5076289;28;1484;-60
2021/01/15 08:35:06;;;;;;;;;;;;;;;19.01;50.87;100906.94;5075399;28;1505;-62
2021/01/15 08:37:32;;;;;;;;;;;;;;;19.14;48.47;100903.19;5077058;28;1484;-60
2021/01/15 08:39:57;;;;;;;;;;;;;;;19.21;50.13;100905.22;5076512;28;1579;-61
2021/01/15 08:42:22;;;;;;;;;;;;;;;19.35;50.43;100895.13;5075958;28;1949;-60
2021/01/15 08:44:48;;;;;;;;;;;;;;;19.48;50.84;100901.97;5075995;28;1564;-61
2021/01/15 08:47:15;;;;;;;;;;;;;;;19.51;51.25;100900.00;5075328;28;1524;-62
2021/01/15 08:49:50;;;;;;;;;;;;;;;19.59;52.00;100894.78;5058439;28;1536;-60
2021/01/15 08:52:17;;;;;;;;;;;;;;;19.57;52.14;100897.59;5076950;28;1417;-61
2021/01/15 08:54:45;;;;;;;;;;;;;;;19.66;52.39;100909.38;5076543;28;1409;-61
2021/01/15 08:57:12;;;;;;;;;;;;;;;19.67;53.14;100906.53;5076057;28;1425;-61
2021/01/15 08:59:39;;;;;;;;;;;;;;;19.69;52.74;100903.72;5076888;28;1421;-60
2021/01/15 09:02:05;;;;;;;;;;;;;;;19.69;53.03;100909.06;5076161;28;1885;-60
2021/01/15 09:04:32;;;;;;;;;;;;;;;19.67;53.25;100905.69;5076027;28;1592;-60
2021/01/15 09:06:58;;;;;;;;;;;;;;;19.64;53.38;100905.97;5075801;28;1643;-61
2021/01/15 09:09:24;;;;;;;;;;;;;;;19.64;53.60;100909.50;5056518;28;1512;-60
2021/01/15 09:11:50;;;;;;;;;;;;;;;19.68;53.81;100902.03;5076258;28;1216;-60
2021/01/15 09:14:19;;;;;;;;;;;;;;;19.65;53.74;100908.50;5075920;28;1563;-60
2021/01/15 09:16:45;;;;;;;;;;;;;;;19.66;53.97;100915.56;5074991;28;1563;-62
2021/01/15 09:19:12;;;;;;;;;;;;;;;19.60;54.24;100915.28;5074253;28;1584;-61
2021/01/15 09:21:56;;;;;;;;;;;;;;;19.56;54.51;100903.13;5074726;28;1922;-62
2021/01/15 09:24:21;;;;;;;;;;;;;;;19.54;54.65;100916.66;5074206;28;1624;-60
2021/01/15 09:26:47;;;;;;;;;;;;;;;19.52;55.01;100907.03;5074857;28;1658;-60
2021/01/15 09:29:13;;;;;;;;;;;;;;;19.51;54.63;100889.25;5075316;28;1604;-60
2021/01/15 09:31:39;;;;;;;;;;;;;;;19.50;55.08;100892.91;5076070;28;1227;-60
2021/01/15 09:34:04;;;;;;;;;;;;;;;19.55;54.40;100890.69;5074911;28;1453;-59
2021/01/15 09:36:30;;;;;;;;;;;;;;;19.65;53.87;100897.75;5075098;28;1399;-61
2021/01/15 09:38:57;;;;;;;;;;;;;;;19.68;54.00;100908.25;5075869;28;1422;-61
2021/01/15 09:41:23;;;;;;;;;;;;;;;19.62;54.53;100913.31;5078087;28;1643;-61
2021/01/15 09:43:53;;;;;;;;;;;;;;;19.58;54.65;100917.25;5077786;28;1881;-59
2021/01/15 09:46:26;;;;;;;;;;;;;;;19.55;54.77;100910.31;5076924;28;1770;-58
2021/01/15 09:48:52;;;;;;;;;;;;;;;19.38;55.40;100900.22;5088271;28;1234;-58
2021/01/15 09:51:23;;;;;;;;;;;;;;;19.28;54.72;100906.38;5075963;28;1533;-58
2021/01/15 09:53:49;;;;;;;;;;;;;;;19.23;55.51;100903.25;5075360;28;1380;-58
2021/01/15 09:56:26;;;;;;;;;;;;;;;19.21;55.26;100893.66;5075071;28;1490;-58
2021/01/15 09:58:52;;;;;;;;;;;;;;;19.22;55.64;100903.41;5069975;28;1362;-58
2021/01/15 10:01:18;;;;;;;;;;;;;;;19.35;55.97;100898.66;5074047;28;1455;-58
2021/01/15 10:03:44;;;;;;;;;;;;;;;19.34;55.99;100894.28;5074387;28;1898;-58
2021/01/15 10:06:12;;;;;;;;;;;;;;;19.37;56.14;100895.84;5074989;28;1413;-58
2021/01/15 10:08:38;;;;;;;;;;;;;;;19.35;56.52;100895.13;5074903;28;1494;-58
2021/01/15 10:11:03;;;;;;;;;;;;;;;19.38;56.63;100898.41;5074523;28;1401;-58
2021/01/15 10:13:28;;;;;;;;;;;;;;;19.37;57.00;100882.44;5074580;28;1385;-58
2021/01/15 10:15:53;;;;;;;;;;;;;;;19.35;57.22;100882.56;5074301;28;1386;-58
2021/01/15 10:18:18;;;;;;;;;;;;;;;19.37;57.26;100887.78;5074554;28;1488;-58
2021/01/15 10:20:44;;;;;;;;;;;;;;;19.42;57.10;100886.41;5074573;28;1374;-57
2021/01/15 10:23:10;;;;;;;;;;;;;;;19.50;56.32;100882.19;5072993;28;1975;-58
2021/01/15 10:25:35;;;;;;;;;;;;;;;19.51;56.73;100870.47;5074691;28;1567;-58
2021/01/15 10:28:00;;;;;;;;;;;;;;;19.54;56.71;100889.00;5074367;28;1485;-58
2021/01/15 10:30:26;;;;;;;;;;;;;;;19.46;56.65;100871.75;4366486;28;10000791;-58
2021/01/15 10:32:51;;;;;;;;;;;;;;;19.52;56.81;100885.56;5071180;28;1469;-58
2021/01/15 10:35:17;;;;;;;;;;;;;;;19.47;56.76;100868.06;5065933;28;1462;-58
2021/01/15 10:37:42;;;;;;;;;;;;;;;19.48;56.55;100876.97;5070338;28;1419;-58
2021/01/15 10:40:08;;;;;;;;;;;;;;;19.40;56.58;100880.34;5064848;28;1407;-58
2021/01/15 10:42:38;;;;;;;;;;;;;;;19.39;56.60;100883.97;5074773;28;1897;-58
2021/01/15 10:45:03;;;;;;;;;;;;;;;19.40;56.85;100882.19;5068176;28;1387;-58
2021/01/15 10:47:29;;;;;;;;;;;;;;;19.37;56.56;100882.44;5065636;28;1398;-58
2021/01/15 10:49:54;;;;;;;;;;;;;;;19.36;56.35;100876.22;5069163;28;1337;-58
2021/01/15 10:52:19;;;;;;;;;;;;;;;19.36;56.29;100876.22;5068703;28;1620;-57
2021/01/15 10:54:45;;;;;;;;;;;;;;;19.31;56.08;100873.09;5072240;28;1487;-58
2021/01/15 10:57:10;;;;;;;;;;;;;;;19.28;56.42;100873.38;5064452;28;1529;-58
2021/01/15 10:59:36;;;;;;;;;;;;;;;19.24;56.92;100880.00;5070704;28;1461;-58
2021/01/15 11:02:01;;;;;;;;;;;;;;;19.21;56.91;100873.03;5063014;28;1898;-58
2021/01/15 11:04:26;;;;;;;;;;;;;;;19.17;56.72;100876.13;5067487;28;1526;-58
2021/01/15 11:06:53;;;;;;;;;;;;;;;19.13;57.15;100872.03;5064572;28;1558;-58
2021/01/15 11:09:19;;;;;;;;;;;;;;;19.11;56.98;100866.78;5067345;28;1386;-58
2021/01/15 11:11:48;;;;;;;;;;;;;;;19.10;56.78;100873.16;5069781;28;1370;-58
2021/01/15 11:14:14;;;;;;;;;;;;;;;19.05;57.43;100865.50;5068897;28;1460;-58
2021/01/15 11:16:39;;;;;;;;;;;;;;;19.05;57.01;100865.50;5067463;28;1316;-58
2021/01/15 11:19:05;;;;;;;;;;;;;;;19.03;56.77;100864.78;5063038;28;1593;-58
2021/01/15 11:21:30;;;;;;;;;;;;;;;19.02;56.83;100857.75;5061039;28;1636;-58
2021/01/15 11:23:56;;;;;;;;;;;;;;;19.06;57.57;100863.69;5062601;28;1969;-57
2021/01/15 11:26:25;;;;;;;;;;;;;;;19.07;57.21;100852.81;5065625;28;1597;-57
2021/01/15 11:28:54;;;;;;;;;;;;;;;19.10;56.89;100865.13;5067317;28;2219;-58
2021/01/15 11:31:20;;;;;;;;;;;;;;;19.06;57.17;100850.28;5073664;28;1541;-58
2021/01/15 11:33:45;;;;;;;;;;;;;;;19.04;57.65;100849.56;5070140;28;1433;-58
2021/01/15 11:36:11;;;;;;;;;;;;;;;18.98;58.12;100845.59;5072122;28;2727;-58
2021/01/15 11:38:37;;;;;;;;;;;;;;;18.97;58.01;100856.44;5070032;28;1489;-58
2021/01/15 11:41:02;;;;;;;;;;;;;;;18.95;56.96;100851.19;5078111;28;1582;-58
2021/01/15 11:43:31;;;;;;;;;;;;;;;18.90;57.28;100850.75;5076850;28;1894;-58
2021/01/15 11:45:56;;;;;;;;;;;;;;;18.88;57.70;100855.41;5078072;28;1428;-58
2021/01/15 11:48:22;;;;;;;;;;;;;;;18.87;57.53;100851.84;5078159;28;863;-58
2021/01/15 11:50:48;;;;;;;;;;;;;;;18.83;57.69;100836.19;5078328;28;826;-58
2021/01/15 11:53:13;;;;;;;;;;;;;;;18.81;57.66;100846.19;5077476;28;1520;-58
2021/01/15 11:55:38;;;;;;;;;;;;;;;18.79;58.10;100862.38;5076888;28;1449;-58
2021/01/15 11:58:04;;;;;;;;;;;;;;;18.80;57.73;100850.72;5077853;28;1378;-58
2021/01/15 12:00:29;;;;;;;;;;;;;;;18.82;57.89;100859.47;5077109;28;1544;-58
2021/01/15 12:02:55;;;;;;;;;;;;;;;18.91;57.09;100846.25;5077214;28;1969;-57
2021/01/15 12:05:20;;;;;;;;;;;;;;;19.06;56.54;100843.09;5076639;28;1520;-60
2021/01/15 12:07:45;;;;;;;;;;;;;;;19.21;57.34;100845.41;5076962;28;1496;-58
2021/01/15 12:10:11;;;;;;;;;;;;;;;19.24;56.71;100840.63;5066178;28;1481;-59
2021/01/15 12:12:40;;;;;;;;;;;;;;;19.23;57.21;100848.78;5076517;28;1418;-59
2021/01/15 12:15:06;;;;;;;;;;;;;;;19.27;57.18;100848.38;5077729;28;1497;-59
2021/01/15 12:17:32;;;;;;;;;;;;;;;19.37;57.06;100856.47;5076619;28;1571;-60
2021/01/15 12:19:57;;;;;;;;;;;;;;;19.43;56.70;100855.91;5076753;28;1402;-59
2021/01/15 12:22:23;;;;;;;;;;;;;;;19.44;56.91;100854.94;5076549;28;1914;-59
2021/01/15 12:24:48;;;;;;;;;;;;;;;19.50;56.59;100860.72;5077476;28;804;-59
2021/01/15 12:27:14;;;;;;;;;;;;;;;19.54;56.56;100854.13;5077595;28;1354;-59
2021/01/15 12:29:39;;;;;;;;;;;;;;;19.60;56.44;100850.91;5076822;28;1517;-60
2021/01/15 12:32:05;;;;;;;;;;;;;;;19.63;56.62;100855.97;5076956;28;1385;-59
2021/01/15 12:34:30;;;;;;;;;;;;;;;19.62;56.85;100848.94;5075960;28;1500;-59
2021/01/15 12:36:55;;;;;;;;;;;;;;;19.59;56.81;100850.03;5076294;28;1441;-59
2021/01/15 12:39:21;;;;;;;;;;;;;;;19.58;57.34;100864.44;5075749;28;1430;-59
2021/01/15 12:41:47;;;;;;;;;;;;;;;19.59;56.76;100854.56;5075643;28;1890;-59
2021/01/15 12:44:12;;;;;;;;;;;;;;;19.52;57.09;100856.06;5074576;28;1540;-59
2021/01/15 12:46:38;;;;;;;;;;;;;;;19.46;57.20;100869.06;5077305;28;1429;-59
2021/01/15 12:49:03;;;;;;;;;;;;;;;19.43;57.46;100853.22;5059419;28;1374;-60
2021/01/15 12:51:29;;;;;;;;;;;;;;;19.36;57.33;100860.13;5078171;28;1437;-59
2021/01/15 12:53:54;;;;;;;;;;;;;;;19.41;56.93;100860.56;5075519;28;1536;-59
2021/01/15 12:56:20;;;;;;;;;;;;;;;19.38;57.20;100855.50;5075497;28;1473;-59
2021/01/15 12:58:45;;;;;;;;;;;;;;;19.44;57.12;100870.19;5074360;28;1528;-59